Time;durP1;ratioP1;P1;durP2;ratioP2;P2;SDS_P1;SDS_P2;PMS_P1;PMS_P2;Temp;Humidity;BMP_temperature;BMP_pressure;BME280_temperature;BME280_humidity;BME280_pressure;Samples;Min_cycle;Max_cycle;Signal;HPM_P1;HPM_P2
2021/05/01 00:01:43;;;;;;;34.13;15.93;;;2.20;99.90;;;;;;4998274;28;20050;-85
2021/05/01 00:04:09;;;;;;;34.92;15.93;;;2.20;99.90;;;;;;5028794;28;20053;-85
2021/05/01 00:06:35;;;;;;;32.42;14.82;;;2.20;99.90;;;;;;4992014;28;20125;-85
2021/05/01 00:09:02;;;;;;;30.15;15.70;;;2.20;99.90;;;;;;4996005;28;20086;-85
2021/05/01 00:11:30;;;;;;;37.63;16.83;;;2.10;99.90;;;;;;5015470;28;20069;-84
2021/05/01 00:13:58;;;;;;;32.10;14.18;;;2.20;99.90;;;;;;5000629;28;20565;-85
2021/05/01 00:16:26;;;;;;;32.58;15.07;;;2.10;99.90;;;;;;5001693;28;20054;-85
2021/05/01 00:18:52;;;;;;;28.48;14.77;;;2.10;99.90;;;;;;4983827;28;20060;-84
2021/05/01 00:21:19;;;;;;;33.80;13.60;;;2.00;99.90;;;;;;5004973;28;20045;-84
2021/05/01 00:23:46;;;;;;;33.58;14.13;;;1.90;99.90;;;;;;5010412;28;20484;-84
2021/05/01 00:26:13;;;;;;;29.10;14.85;;;1.90;99.90;;;;;;4990580;28;20073;-85
2021/05/01 00:28:39;;;;;;;29.92;15.05;;;1.90;99.90;;;;;;5002065;28;20128;-85
2021/05/01 00:31:06;;;;;;;27.67;14.63;;;1.90;99.90;;;;;;5003539;28;20155;-84
2021/05/01 00:33:33;;;;;;;27.75;14.10;;;1.90;99.90;;;;;;5009917;28;20084;-85
2021/05/01 00:36:00;;;;;;;34.05;14.27;;;1.80;99.90;;;;;;5023666;28;20104;-85
2021/05/01 00:38:26;;;;;;;32.88;14.32;;;1.80;99.90;;;;;;5008441;28;20068;-85
2021/05/01 00:40:53;;;;;;;36.60;15.65;;;1.70;99.90;;;;;;4998816;28;20050;-85
2021/05/01 00:43:19;;;;;;;32.03;14.82;;;1.70;99.90;;;;;;5003632;28;20535;-84
2021/05/01 00:45:46;;;;;;;34.83;15.00;;;1.80;99.90;;;;;;4972132;28;20133;-84
2021/05/01 00:48:12;;;;;;;31.55;15.00;;;1.80;99.90;;;;;;4972247;28;20043;-84
2021/05/01 00:50:39;;;;;;;27.52;14.52;;;1.70;99.90;;;;;;5004440;28;20137;-85
2021/05/01 00:53:05;;;;;;;29.92;13.35;;;1.60;99.90;;;;;;4997858;28;20129;-85
2021/05/01 00:55:36;;;;;;;42.35;14.60;;;1.50;99.90;;;;;;4992277;28;20046;-85
2021/05/01 00:58:04;;;;;;;30.98;14.90;;;1.50;99.90;;;;;;5008351;28;20057;-85
2021/05/01 01:02:57;;;;;;;31.15;14.48;;;1.60;99.90;;;;;;4988370;28;20507;-84
2021/05/01 01:05:25;;;;;;;31.20;14.55;;;1.60;99.90;;;;;;4971703;28;20046;-85
2021/05/01 01:07:51;;;;;;;31.95;14.75;;;1.60;99.90;;;;;;4988256;28;20058;-84
2021/05/01 01:10:18;;;;;;;33.78;15.13;;;1.60;99.90;;;;;;5006741;28;20566;-85
2021/05/01 01:12:45;;;;;;;32.97;14.70;;;1.60;99.90;;;;;;5007494;28;20500;-85
2021/05/01 01:15:28;;;;;;;31.67;16.35;;;1.60;99.90;;;;;;4975525;28;20054;-85
2021/05/01 01:17:56;;;;;;;32.55;16.27;;;1.70;99.90;;;;;;4987793;28;20081;-84
2021/05/01 01:20:23;;;;;;;33.63;16.15;;;1.70;99.90;;;;;;5003808;28;20438;-84
2021/05/01 01:22:52;;;;;;;35.25;16.13;;;1.80;99.90;;;;;;5015579;28;20077;-84
2021/05/01 01:25:21;;;;;;;31.83;15.30;;;1.80;99.90;;;;;;4989400;28;20066;-84
2021/05/01 01:27:48;;;;;;;33.25;15.50;;;1.80;99.90;;;;;;5008215;28;20451;-85
2021/05/01 01:30:17;;;;;;;35.25;15.45;;;1.80;99.90;;;;;;5014823;28;20129;-84
2021/05/01 01:32:44;;;;;;;27.60;14.80;;;1.80;99.90;;;;;;4990440;28;20418;-84
2021/05/01 01:35:13;;;;;;;35.40;15.55;;;1.80;99.90;;;;;;4972175;28;20054;-84
2021/05/01 01:37:45;;;;;;;33.92;14.55;;;1.80;99.90;;;;;;4973469;28;20062;-84
2021/05/01 01:40:15;;;;;;;30.90;16.05;;;1.80;99.90;;;;;;4975799;28;20054;-84
2021/05/01 01:42:42;;;;;;;28.77;15.05;;;1.70;99.90;;;;;;4973842;28;20145;-84
2021/05/01 01:45:10;;;;;;;37.42;15.65;;;1.70;99.90;;;;;;4980694;28;20133;-85
2021/05/01 01:47:36;;;;;;;34.80;15.82;;;1.70;99.90;;;;;;4974856;28;20134;-85
2021/05/01 01:50:09;;;;;;;31.60;16.08;;;1.70;99.90;;;;;;5006750;28;20074;-84
2021/05/01 01:52:36;;;;;;;32.95;15.43;;;1.70;99.90;;;;;;4994147;28;20129;-84
2021/05/01 01:55:08;;;;;;;32.35;17.05;;;1.60;99.90;;;;;;5009091;28;20285;-85
2021/05/01 01:57:35;;;;;;;34.45;14.40;;;1.60;99.90;;;;;;5003863;28;20467;-84
2021/05/01 02:00:10;;;;;;;30.10;16.55;;;1.60;99.90;;;;;;4990818;28;20085;-84
2021/05/01 02:02:36;;;;;;;32.95;15.45;;;1.60;99.90;;;;;;4991035;28;20062;-84
2021/05/01 02:05:04;;;;;;;35.92;15.65;;;1.50;99.90;;;;;;4994252;28;20142;-84
2021/05/01 02:07:31;;;;;;;33.67;15.68;;;1.50;99.90;;;;;;4970014;28;20051;-85
2021/05/01 02:09:57;;;;;;;34.13;16.80;;;1.50;99.90;;;;;;5005057;28;20145;-85
2021/05/01 02:12:23;;;;;;;41.15;17.42;;;1.50;99.90;;;;;;4999857;28;20132;-84
2021/05/01 02:14:50;;;;;;;37.88;16.75;;;1.50;99.90;;;;;;4991942;28;20084;-85
2021/05/01 02:17:16;;;;;;;41.95;18.08;;;1.50;99.90;;;;;;5000047;28;20558;-85
2021/05/01 02:19:43;;;;;;;37.50;16.80;;;1.40;99.90;;;;;;4996652;28;20062;-85
2021/05/01 02:22:10;;;;;;;49.92;16.98;;;1.40;99.90;;;;;;5001713;28;20077;-84
2021/05/01 02:24:36;;;;;;;35.13;17.10;;;1.40;99.90;;;;;;5005300;28;20053;-84
2021/05/01 02:27:03;;;;;;;32.45;16.40;;;1.30;99.90;;;;;;4990744;28;20104;-84
2021/05/01 02:29:30;;;;;;;35.95;16.98;;;1.30;99.90;;;;;;4990345;28;20636;-85
2021/05/01 02:31:56;;;;;;;36.90;15.90;;;1.10;99.90;;;;;;5008823;28;20073;-85
2021/05/01 02:34:23;;;;;;;34.30;16.15;;;1.10;99.90;;;;;;5009227;28;20424;-85
2021/05/01 02:36:49;;;;;;;36.25;16.83;;;1.20;99.90;;;;;;4991473;28;20077;-84
2021/05/01 02:39:15;;;;;;;35.60;15.43;;;1.20;99.90;;;;;;4972405;28;20138;-84
2021/05/01 02:41:41;;;;;;;44.13;15.73;;;1.10;99.90;;;;;;5008703;28;20723;-84
2021/05/01 02:44:07;;;;;;;40.08;16.35;;;1.10;99.90;;;;;;5010861;28;20081;-84
2021/05/01 02:46:34;;;;;;;29.35;13.57;;;0.90;99.90;;;;;;5008971;28;20107;-85
2021/05/01 02:49:00;;;;;;;30.13;14.50;;;0.80;99.90;;;;;;5010253;28;20089;-84
2021/05/01 02:51:27;;;;;;;26.92;13.93;;;0.60;99.90;;;;;;5019090;28;20052;-84
2021/05/01 02:53:53;;;;;;;26.40;13.43;;;0.70;99.90;;;;;;5011536;28;20137;-84
2021/05/01 02:56:19;;;;;;;27.50;13.88;;;0.60;99.90;;;;;;5006239;28;20070;-84
2021/05/01 02:58:45;;;;;;;33.55;14.68;;;0.60;99.90;;;;;;5009753;28;20073;-84
2021/05/01 03:01:12;;;;;;;32.15;15.43;;;0.60;99.90;;;;;;4997480;28;20067;-85
2021/05/01 03:03:40;;;;;;;31.00;15.27;;;0.60;99.90;;;;;;5004670;28;20200;-84
2021/05/01 03:06:07;;;;;;;32.13;14.65;;;0.60;99.90;;;;;;4983770;28;20050;-84
2021/05/01 03:08:33;;;;;;;33.13;16.48;;;0.70;99.90;;;;;;5000835;28;20115;-84
2021/05/01 03:10:59;;;;;;;37.25;16.25;;;0.80;99.90;;;;;;4991757;28;20062;-85
2021/05/01 03:13:28;;;;;;;33.63;15.35;;;0.90;99.90;;;;;;5008631;28;20116;-85
2021/05/01 03:15:54;;;;;;;32.20;14.32;;;0.80;99.90;;;;;;4998626;28;20089;-85
2021/05/01 03:18:20;;;;;;;32.85;14.75;;;0.80;99.90;;;;;;4979199;28;20057;-85
2021/05/01 03:20:49;;;;;;;35.55;16.10;;;0.80;99.90;;;;;;5015658;28;20080;-84
2021/05/01 03:23:16;;;;;;;37.70;16.63;;;1.00;99.90;;;;;;5008949;28;20088;-84
2021/05/01 03:25:42;;;;;;;38.00;17.63;;;1.30;99.90;;;;;;5010093;28;20583;-83
2021/05/01 03:28:08;;;;;;;42.53;18.85;;;1.40;99.90;;;;;;5007936;28;20099;-83
2021/05/01 03:30:35;;;;;;;35.67;17.48;;;1.50;99.90;;;;;;5009926;28;20474;-84
2021/05/01 03:33:02;;;;;;;40.65;16.13;;;1.60;99.90;;;;;;5010417;28;20453;-84
2021/05/01 03:35:28;;;;;;;36.75;17.58;;;1.70;99.90;;;;;;4985260;28;20069;-84
2021/05/01 03:37:56;;;;;;;39.92;17.05;;;1.80;99.90;;;;;;5014473;28;20089;-84
2021/05/01 03:40:23;;;;;;;38.25;17.13;;;1.90;99.90;;;;;;5008804;28;20115;-84
2021/05/01 03:42:49;;;;;;;39.00;17.80;;;1.90;99.90;;;;;;5013630;28;20053;-84
2021/05/01 03:45:16;;;;;;;37.85;17.83;;;2.10;99.90;;;;;;5010355;28;20100;-84
2021/05/01 03:47:42;;;;;;;38.35;17.13;;;2.20;99.90;;;;;;4983938;28;20054;-84
2021/05/01 03:50:09;;;;;;;40.60;17.60;;;2.20;99.90;;;;;;5002625;28;20052;-84
2021/05/01 03:52:35;;;;;;;43.25;18.20;;;2.20;99.90;;;;;;4987439;28;20156;-84
2021/05/01 03:55:02;;;;;;;36.97;17.33;;;2.30;99.90;;;;;;4995975;28;20058;-84
2021/05/01 03:57:49;;;;;;;41.42;18.13;;;2.40;99.90;;;;;;4977122;28;20046;-83
2021/05/01 04:00:16;;;;;;;48.97;19.35;;;2.60;99.90;;;;;;4988545;28;20085;-84
2021/05/01 04:02:42;;;;;;;48.90;18.52;;;2.70;99.90;;;;;;5023113;28;20132;-84
2021/05/01 04:05:09;;;;;;;45.88;18.60;;;2.70;99.90;;;;;;4986928;28;20380;-84
2021/05/01 04:07:36;;;;;;;50.58;19.13;;;2.80;99.90;;;;;;5011151;28;20060;-84
2021/05/01 04:10:03;;;;;;;46.22;19.27;;;3.00;99.90;;;;;;5005992;28;20123;-84
2021/05/01 04:12:30;;;;;;;53.20;19.48;;;3.10;99.90;;;;;;4987418;28;20069;-84
2021/05/01 04:14:56;;;;;;;55.90;18.40;;;3.20;99.90;;;;;;4990962;28;20089;-84
2021/05/01 04:17:22;;;;;;;62.78;19.48;;;3.30;99.90;;;;;;5012522;28;20072;-84
2021/05/01 04:19:49;;;;;;;61.70;20.58;;;3.30;99.90;;;;;;4999548;28;20060;-84
2021/05/01 04:22:23;;;;;;;55.67;19.45;;;3.40;99.90;;;;;;5025275;28;20071;-83
2021/05/01 04:24:50;;;;;;;64.90;20.70;;;3.50;99.90;;;;;;5016792;28;20045;-83
2021/05/01 04:27:18;;;;;;;103.50;19.23;;;3.40;99.90;;;;;;5009504;28;20073;-84
2021/05/01 04:29:47;;;;;;;58.97;18.17;;;3.40;99.90;;;;;;5004673;28;20050;-83
2021/05/01 04:32:20;;;;;;;81.72;19.48;;;3.40;99.90;;;;;;4996976;28;20053;-84
2021/05/01 04:34:47;;;;;;;81.68;16.55;;;3.40;99.90;;;;;;4996774;28;20096;-84
2021/05/01 04:37:21;;;;;;;74.20;17.73;;;3.40;99.90;;;;;;4996206;28;20772;-84
2021/05/01 04:39:48;;;;;;;56.43;16.60;;;3.40;99.90;;;;;;5012473;28;20741;-84
2021/05/01 04:42:15;;;;;;;60.03;16.88;;;3.40;99.90;;;;;;5012617;28;20054;-84
2021/05/01 04:44:42;;;;;;;78.78;16.50;;;3.50;99.90;;;;;;4994348;28;20108;-84
2021/05/01 04:47:10;;;;;;;111.75;17.83;;;3.40;99.90;;;;;;5012920;28;20141;-84
2021/05/01 04:49:42;;;;;;;131.43;19.60;;;3.30;99.90;;;;;;4985168;28;20073;-84
2021/05/01 04:52:09;;;;;;;67.32;17.00;;;3.30;99.90;;;;;;5015695;28;20236;-84
2021/05/01 04:54:35;;;;;;;113.72;17.42;;;3.40;99.90;;;;;;4991751;28;20129;-84
2021/05/01 04:57:05;;;;;;;44.70;15.13;;;3.40;99.90;;;;;;4975873;28;20093;-84
2021/05/01 04:59:38;;;;;;;66.88;17.38;;;3.50;99.90;;;;;;4985612;28;20092;-84
2021/05/01 05:02:07;;;;;;;52.55;17.98;;;3.60;99.90;;;;;;5014769;28;20525;-84
2021/05/01 05:04:36;;;;;;;52.95;16.55;;;3.70;99.90;;;;;;5010914;28;20054;-80
2021/05/01 05:07:02;;;;;;;50.35;16.52;;;3.70;99.90;;;;;;5023592;28;20049;-80
2021/05/01 05:09:30;;;;;;;52.63;17.42;;;3.90;99.90;;;;;;4994633;28;20087;-80
2021/05/01 05:11:57;;;;;;;94.25;18.40;;;4.00;99.90;;;;;;4994625;28;20077;-80
2021/05/01 05:14:23;;;;;;;75.55;17.25;;;4.00;99.90;;;;;;5012403;28;20092;-80
2021/05/01 05:16:55;;;;;;;69.07;15.27;;;4.10;99.90;;;;;;4994606;28;20049;-80
2021/05/01 05:19:22;;;;;;;62.03;18.27;;;4.20;99.90;;;;;;4994646;28;20064;-79
2021/05/01 05:21:50;;;;;;;55.38;18.55;;;4.20;99.90;;;;;;4994414;28;20068;-79
2021/05/01 05:24:17;;;;;;;49.40;17.75;;;4.40;99.90;;;;;;5011955;28;20817;-80
2021/05/01 05:26:43;;;;;;;52.95;17.00;;;4.50;99.90;;;;;;5012055;28;20141;-79
2021/05/01 05:29:12;;;;;;;45.03;18.08;;;4.70;99.90;;;;;;5027044;28;20068;-79
2021/05/01 05:31:38;;;;;;;45.40;16.98;;;4.80;99.90;;;;;;5031741;28;20653;-80
2021/05/01 05:34:06;;;;;;;36.53;15.90;;;4.90;99.90;;;;;;5014040;28;20437;-80
2021/05/01 05:36:40;;;;;;;49.05;16.45;;;4.90;99.90;;;;;;5029913;28;20041;-80
2021/05/01 05:39:07;;;;;;;42.35;16.38;;;5.00;99.90;;;;;;5027742;28;20096;-79
2021/05/01 05:41:34;;;;;;;40.78;16.23;;;5.00;99.90;;;;;;5006856;28;20077;-81
2021/05/01 05:44:00;;;;;;;42.25;16.20;;;5.00;99.90;;;;;;5007819;28;20096;-79
2021/05/01 05:46:27;;;;;;;44.53;17.50;;;5.00;99.90;;;;;;5008221;28;20112;-78
2021/05/01 05:48:53;;;;;;;37.08;15.50;;;5.00;99.90;;;;;;5012119;28;20445;-79
2021/05/01 05:51:21;;;;;;;40.22;16.30;;;5.10;99.90;;;;;;4999473;28;20572;-80
2021/05/01 05:53:48;;;;;;;39.83;15.70;;;5.10;99.90;;;;;;5013990;28;20077;-79
2021/05/01 05:56:15;;;;;;;42.72;16.42;;;5.20;99.90;;;;;;4977975;28;20459;-80
2021/05/01 05:58:42;;;;;;;37.08;17.05;;;5.20;99.90;;;;;;4994369;28;20049;-79
2021/05/01 06:01:11;;;;;;;43.10;17.23;;;5.40;99.90;;;;;;5008429;28;20105;-79
2021/05/01 06:03:46;;;;;;;43.58;18.50;;;5.50;99.90;;;;;;5008032;28;20046;-80
2021/05/01 06:06:42;;;;;;;38.28;16.27;;;5.60;99.90;;;;;;5020854;28;20072;-80
2021/05/01 06:09:11;;;;;;;42.42;17.90;;;5.50;99.90;;;;;;5003416;28;20045;-79
2021/05/01 06:11:39;;;;;;;39.67;18.25;;;5.70;99.90;;;;;;5026153;28;20136;-79
2021/05/01 06:14:06;;;;;;;44.42;18.38;;;5.70;99.90;;;;;;5024457;28;20140;-79
2021/05/01 06:16:36;;;;;;;40.17;17.65;;;5.70;99.90;;;;;;4997037;28;20112;-79
2021/05/01 06:19:03;;;;;;;40.25;17.38;;;5.70;99.90;;;;;;5007002;28;20041;-79
2021/05/01 06:21:30;;;;;;;40.17;17.90;;;5.80;99.90;;;;;;4997399;28;20738;-79
2021/05/01 06:23:57;;;;;;;46.88;19.00;;;6.00;99.90;;;;;;4997055;28;20081;-78
2021/05/01 06:26:25;;;;;;;44.00;18.60;;;6.10;99.90;;;;;;5012731;28;20086;-79
2021/05/01 06:28:51;;;;;;;37.65;18.58;;;6.20;99.90;;;;;;4978052;28;20054;-79
2021/05/01 06:31:18;;;;;;;40.75;17.63;;;6.30;99.90;;;;;;4989443;28;20475;-79
2021/05/01 06:33:45;;;;;;;40.65;19.25;;;6.40;99.90;;;;;;5013890;28;20096;-79
2021/05/01 06:36:12;;;;;;;43.00;19.80;;;6.70;99.90;;;;;;5016954;28;20058;-79
2021/05/01 06:38:41;;;;;;;40.05;19.02;;;7.00;99.90;;;;;;5007390;28;20053;-80
2021/05/01 06:41:11;;;;;;;37.92;18.45;;;7.10;99.90;;;;;;5001250;28;20082;-79
2021/05/01 06:44:08;;;;;;;42.70;19.70;;;7.40;99.90;;;;;;5003947;28;20057;-79
2021/05/01 06:46:39;;;;;;;42.92;20.00;;;7.50;99.90;;;;;;5023594;28;20089;-79
2021/05/01 06:49:12;;;;;;;41.38;19.42;;;7.50;99.90;;;;;;5028283;28;20080;-79
2021/05/01 06:51:40;;;;;;;34.00;18.45;;;7.50;99.90;;;;;;5016715;28;20111;-80
2021/05/01 06:54:12;;;;;;;35.65;19.00;;;7.60;99.90;;;;;;5032170;28;20052;-80
2021/05/01 06:56:43;;;;;;;33.80;17.63;;;7.70;99.90;;;;;;5031663;28;20081;-80
2021/05/01 06:59:14;;;;;;;38.28;19.40;;;7.70;99.90;;;;;;5005145;28;20742;-79
2021/05/01 07:01:44;;;;;;;36.17;18.33;;;7.70;99.90;;;;;;5015509;28;20112;-79
2021/05/01 07:04:12;;;;;;;38.15;18.40;;;7.90;99.90;;;;;;4994492;28;20050;-79
2021/05/01 07:06:41;;;;;;;31.42;18.55;;;7.90;99.90;;;;;;5013473;28;20050;-79
2021/05/01 07:09:11;;;;;;;35.65;17.08;;;8.20;99.90;;;;;;5012751;28;20398;-79
2021/05/01 07:11:55;;;;;;;32.88;17.92;;;8.20;99.90;;;;;;4996598;28;20047;-80
2021/05/01 07:14:52;;;;;;;34.03;17.63;;;8.30;99.90;;;;;;4915325;29;20080;-81
2021/05/01 07:17:19;;;;;;;29.40;17.45;;;8.20;99.90;;;;;;4920406;29;20048;-80
2021/05/01 07:19:49;;;;;;;30.55;17.75;;;8.20;99.90;;;;;;4899904;29;20060;-80
2021/05/01 07:22:15;;;;;;;30.90;17.83;;;8.30;99.90;;;;;;4905684;29;20112;-80
2021/05/01 07:24:42;;;;;;;32.80;18.38;;;8.30;99.90;;;;;;4914014;29;20139;-80
2021/05/01 07:27:10;;;;;;;32.13;19.38;;;8.30;99.90;;;;;;4898618;29;20084;-80
2021/05/01 07:29:44;;;;;;;27.95;16.60;;;8.50;99.90;;;;;;4911068;29;20055;-80
2021/05/01 07:32:20;;;;;;;33.50;16.33;;;8.60;99.90;;;;;;4933285;28;20049;-80
2021/05/01 07:34:51;;;;;;;29.45;17.17;;;8.60;99.90;;;;;;4998078;28;20069;-80
2021/05/01 07:37:22;;;;;;;32.67;17.73;;;8.90;99.90;;;;;;5015609;28;20053;-80
2021/05/01 07:39:52;;;;;;;27.52;17.17;;;9.00;99.90;;;;;;5001345;28;20050;-80
2021/05/01 07:42:23;;;;;;;26.00;16.00;;;8.80;99.90;;;;;;4992633;28;20549;-81
2021/05/01 07:44:52;;;;;;;26.10;15.10;;;8.70;99.90;;;;;;4988976;28;20784;-79
2021/05/01 07:47:23;;;;;;;28.48;17.50;;;8.80;99.90;;;;;;4980367;28;20537;-80
2021/05/01 07:49:51;;;;;;;29.27;16.05;;;8.90;99.90;;;;;;5005618;28;20100;-86
2021/05/01 07:52:18;;;;;;;24.00;15.20;;;8.90;99.90;;;;;;4978851;28;20144;-77
2021/05/01 07:54:44;;;;;;;23.17;14.48;;;9.10;99.90;;;;;;5015451;28;20076;-77
2021/05/01 07:57:11;;;;;;;22.83;14.77;;;9.00;99.90;;;;;;5021885;28;20107;-78
2021/05/01 07:59:38;;;;;;;28.13;16.17;;;8.80;99.90;;;;;;5030578;28;20510;-78
2021/05/01 08:02:05;;;;;;;21.75;15.15;;;8.80;99.90;;;;;;5029352;28;20064;-78
2021/05/01 08:04:33;;;;;;;26.52;14.82;;;8.70;99.90;;;;;;5015974;28;20057;-79
2021/05/01 08:07:03;;;;;;;28.63;14.73;;;8.70;99.90;;;;;;5029751;28;20156;-77
2021/05/01 08:09:30;;;;;;;25.88;14.85;;;9.00;99.90;;;;;;4985768;28;20133;-78
2021/05/01 08:12:01;;;;;;;26.38;15.18;;;9.00;99.90;;;;;;4996374;28;20050;-78
2021/05/01 08:14:30;;;;;;;29.00;16.17;;;8.90;99.90;;;;;;4999397;28;20065;-78
2021/05/01 08:16:58;;;;;;;27.27;15.77;;;9.10;99.90;;;;;;4977482;28;20045;-77
2021/05/01 08:19:25;;;;;;;22.35;14.80;;;9.00;99.90;;;;;;5001279;28;20037;-78
2021/05/01 08:21:52;;;;;;;26.50;15.27;;;9.10;99.90;;;;;;5003061;28;20117;-79
2021/05/01 08:24:18;;;;;;;23.63;15.15;;;9.10;99.90;;;;;;4980065;28;20503;-78
2021/05/01 08:26:45;;;;;;;30.80;14.43;;;9.10;99.90;;;;;;4996695;28;20089;-76
2021/05/01 08:29:12;;;;;;;25.10;14.95;;;9.30;99.90;;;;;;4978528;28;20565;-78
2021/05/01 08:31:38;;;;;;;22.10;15.18;;;9.40;99.90;;;;;;4979045;28;20177;-81
2021/05/01 08:34:07;;;;;;;23.48;14.18;;;9.20;99.90;;;;;;4989338;28;20077;-78
2021/05/01 08:36:33;;;;;;;26.30;16.02;;;9.30;99.90;;;;;;4990366;28;20564;-77
2021/05/01 08:39:00;;;;;;;32.05;15.30;;;9.30;99.90;;;;;;4987037;28;20049;-85
2021/05/01 08:41:26;;;;;;;28.50;14.93;;;9.30;99.90;;;;;;4989162;28;20045;-86
2021/05/01 08:44:09;;;;;;;26.83;14.95;;;9.30;99.90;;;;;;4989414;28;20078;-82
2021/05/01 08:46:36;;;;;;;24.55;15.35;;;9.10;99.90;;;;;;4975065;28;20106;-82
2021/05/01 08:49:04;;;;;;;26.98;15.63;;;9.10;99.90;;;;;;4978528;28;20093;-82
2021/05/01 08:51:31;;;;;;;27.92;15.68;;;9.00;99.90;;;;;;4998366;28;20070;-82
2021/05/01 08:53:59;;;;;;;25.50;15.65;;;9.10;99.90;;;;;;5003657;28;20046;-80
2021/05/01 08:56:26;;;;;;;24.67;15.02;;;9.30;99.90;;;;;;4986957;28;20050;-85
2021/05/01 08:58:58;;;;;;;23.45;15.75;;;9.40;99.90;;;;;;4992051;28;20107;-81
2021/05/01 09:01:25;;;;;;;27.13;16.08;;;9.60;99.90;;;;;;4982920;28;20140;-78
2021/05/01 09:03:53;;;;;;;27.08;16.08;;;9.60;99.90;;;;;;4996002;28;20808;-79
2021/05/01 09:06:23;;;;;;;22.67;15.63;;;9.70;99.90;;;;;;5001882;28;20552;-79
2021/05/01 09:08:57;;;;;;;23.17;16.13;;;9.90;99.90;;;;;;4990026;28;20735;-79
2021/05/01 09:11:37;;;;;;;24.73;14.77;;;9.90;99.90;;;;;;4985214;28;20073;-79
2021/05/01 09:14:26;;;;;;;24.85;15.18;;;9.80;99.90;;;;;;4982061;28;20069;-79
2021/05/01 09:17:06;;;;;;;22.05;14.90;;;9.90;99.90;;;;;;4998542;28;20054;-79
2021/05/01 09:19:39;;;;;;;28.15;16.00;;;10.00;99.90;;;;;;4999538;28;20046;-79
2021/05/01 09:22:15;;;;;;;23.35;15.57;;;10.10;99.90;;;;;;4981353;28;20111;-78
2021/05/01 09:24:44;;;;;;;20.85;14.18;;;10.10;99.90;;;;;;4979705;28;20129;-78
2021/05/01 09:27:17;;;;;;;25.00;13.73;;;10.40;99.90;;;;;;4984392;28;20548;-79
2021/05/01 09:29:46;;;;;;;38.83;13.77;;;10.70;99.90;;;;;;4979271;28;20042;-79
2021/05/01 09:32:27;;;;;;;35.28;13.15;;;10.80;99.90;;;;;;4997722;28;20556;-81
2021/05/01 09:34:57;;;;;;;16.42;11.60;;;11.00;99.90;;;;;;5006218;28;20138;-79
2021/05/01 09:37:27;;;;;;;17.25;12.32;;;11.20;99.90;;;;;;5006657;28;20054;-78
2021/05/01 09:40:01;;;;;;;18.85;12.25;;;11.40;99.90;;;;;;4986465;28;20450;-76
2021/05/01 09:42:36;;;;;;;18.83;12.27;;;11.30;99.90;;;;;;4984252;28;20058;-79
2021/05/01 09:45:09;;;;;;;18.38;11.15;;;;;;;;;;5005087;28;20611;-79
2021/05/01 09:47:37;;;;;;;17.98;10.45;;;11.80;99.90;;;;;;5007074;28;20482;-80
2021/05/01 09:50:37;;;;;;;16.58;11.55;;;;;;;;;;4990700;28;20044;-79
2021/05/01 09:53:10;;;;;;;16.38;10.68;;;;;;;;;;4966984;28;20042;-81
2021/05/01 09:55:45;;;;;;;16.30;11.65;;;11.80;99.90;;;;;;4986019;28;20042;-81
2021/05/01 09:58:15;;;;;;;14.63;10.88;;;11.80;99.90;;;;;;4988519;28;20042;-80
2021/05/01 10:00:42;;;;;;;15.13;11.10;;;11.30;99.90;;;;;;4987456;28;20054;-80
2021/05/01 10:03:23;;;;;;;15.65;11.30;;;11.20;99.90;;;;;;5005493;28;20073;-78
2021/05/01 10:05:52;;;;;;;16.13;11.45;;;11.20;99.90;;;;;;4995734;28;20811;-78
2021/05/01 10:08:21;;;;;;;17.65;11.70;;;;;;;;;;4986086;28;20038;-78
2021/05/01 10:10:49;;;;;;;22.35;12.23;;;10.90;99.90;;;;;;5009752;28;20138;-79
2021/05/01 10:13:36;;;;;;;18.30;11.57;;;;;;;;;;5001455;28;20763;-77
2021/05/01 10:16:07;;;;;;;17.25;12.40;;;;;;;;;;5003646;28;20046;-77
2021/05/01 10:18:34;;;;;;;16.52;11.32;;;;;;;;;;5001241;28;20524;-77
2021/05/01 10:21:01;;;;;;;19.10;12.45;;;;;;;;;;5005390;28;20156;-76
2021/05/01 10:23:28;;;;;;;19.92;12.10;;;;;;;;;;4988167;28;20483;-78
2021/05/01 10:26:11;;;;;;;21.60;12.50;;;;;;;;;;4982413;28;20311;-77
2021/05/01 10:28:45;;;;;;;20.13;12.50;;;;;;;;;;4998860;28;20132;-77
2021/05/01 10:31:13;;;;;;;18.67;12.65;;;;;;;;;;5000647;28;20399;-78
2021/05/01 10:33:44;;;;;;;19.42;12.55;;;;;;;;;;4998309;28;20092;-78
2021/05/01 10:36:11;;;;;;;25.77;13.82;;;;;;;;;;4982274;28;20057;-77
2021/05/01 10:38:38;;;;;;;27.13;12.82;;;;;;;;;;4986964;28;20133;-77
2021/05/01 10:41:07;;;;;;;25.33;14.98;;;;;;;;;;4988309;28;20448;-77
2021/05/01 10:47:10;;;;;;;22.40;14.48;;;;;;;;;;4998776;28;20118;-77
2021/05/01 10:49:42;;;;;;;22.63;13.50;;;;;;;;;;5008952;28;20096;-77
2021/05/01 10:52:15;;;;;;;22.60;13.38;;;;;;;;;;4999553;28;20127;-77
2021/05/01 10:54:56;;;;;;;20.98;13.20;;;;;;;;;;5009956;28;20081;-78
2021/05/01 10:57:22;;;;;;;23.98;14.18;;;;;;;;;;5006671;28;20091;-78
2021/05/01 10:59:56;;;;;;;23.00;13.85;;;;;;;;;;5000515;28;20065;-78
2021/05/01 11:02:27;;;;;;;18.08;12.95;;;;;;;;;;4986705;28;20128;-78
2021/05/01 11:04:57;;;;;;;20.88;13.60;;;;;;;;;;4982962;28;20062;-77
2021/05/01 11:07:34;;;;;;;21.65;12.88;;;;;;;;;;4997295;28;20046;-76
2021/05/01 11:10:04;;;;;;;22.08;13.23;;;;;;;;;;4995183;28;20054;-77
2021/05/01 11:12:35;;;;;;;21.35;13.15;;;;;;;;;;4997301;28;20042;-77
2021/05/01 11:15:04;;;;;;;22.60;13.27;;;;;;;;;;4999481;28;20050;-80
2021/05/01 11:17:30;;;;;;;23.20;14.00;;;;;;;;;;4983979;28;20073;-79
2021/05/01 11:20:08;;;;;;;19.75;13.43;;;;;;;;;;4986589;28;20056;-78
2021/05/01 11:22:35;;;;;;;22.73;13.43;;;;;;;;;;5009750;28;20081;-80
2021/05/01 11:25:06;;;;;;;22.55;13.57;;;;;;;;;;5011198;28;20092;-79
2021/05/01 11:27:40;;;;;;;21.92;13.13;;;;;;;;;;4993546;28;20571;-78
2021/05/01 11:30:08;;;;;;;21.98;13.63;;;;;;;;;;5011312;28;20076;-80
2021/05/01 11:32:41;;;;;;;28.05;13.70;;;;;;;;;;5011941;28;20085;-80
2021/05/01 11:35:08;;;;;;;28.33;14.57;;;;;;;;;;4993848;28;20078;-79
2021/05/01 11:37:43;;;;;;;26.58;14.55;;;;;;;;;;5010595;28;20050;-79
2021/05/01 11:40:12;;;;;;;23.27;14.13;;;;;;;;;;4994544;28;20081;-80
2021/05/01 11:42:40;;;;;;;24.70;13.85;;;;;;;;;;5011602;28;20145;-79
2021/05/01 11:45:12;;;;;;;27.67;14.73;;;;;;;;;;5008917;28;20065;-80
2021/05/01 11:47:44;;;;;;;21.05;14.27;;;;;;;;;;5006589;28;20455;-80
2021/05/01 11:50:12;;;;;;;25.42;13.57;;;;;;;;;;4993459;28;20040;-80
2021/05/01 11:52:52;;;;;;;21.88;13.07;;;;;;;;;;5005139;28;20095;-80
2021/05/01 11:55:21;;;;;;;21.08;13.88;;;;;;;;;;4993663;28;20074;-80
2021/05/01 11:57:55;;;;;;;24.75;14.93;;;;;;;;;;5009509;28;20133;-80
2021/05/01 12:00:28;;;;;;;25.60;14.02;;;;;;;;;;4992840;28;20079;-79
2021/05/01 12:02:57;;;;;;;26.42;15.57;;;;;;;;;;5009068;28;20129;-80
2021/05/01 12:05:25;;;;;;;23.63;15.55;;;;;;;;;;4996066;28;20411;-81
2021/05/01 12:08:01;;;;;;;21.52;13.32;;;;;;;;;;5021566;28;20053;-80
2021/05/01 12:10:28;;;;;;;19.80;12.55;;;;;;;;;;5012513;28;20052;-80
2021/05/01 12:12:58;;;;;;;19.98;13.23;;;;;;;;;;5011672;28;20046;-80
2021/05/01 12:15:32;;;;;;;19.17;12.25;;;;;;;;;;5011776;28;20132;-79
2021/05/01 12:17:59;;;;;;;17.30;11.15;;;;;;;;;;5030650;28;20084;-80
2021/05/01 12:20:35;;;;;;;17.65;10.68;;;;;;;;;;5030288;28;20088;-79
2021/05/01 12:23:02;;;;;;;16.35;10.85;;;;;;;;;;5029485;28;20144;-82
2021/05/01 12:25:35;;;;;;;16.83;10.82;;;;;;;;;;5027632;28;20054;-78
2021/05/01 12:28:02;;;;;;;21.85;11.43;;;;;;;;;;5026817;28;20156;-77
2021/05/01 12:30:41;;;;;;;14.52;9.70;;;;;;;;;;5008742;28;20045;-79
2021/05/01 12:33:42;;;;;;;12.60;9.05;;;;;;;;;;5010391;28;20483;-76
2021/05/01 12:36:10;;;;;;;13.02;9.10;;;;;;;;;;4977406;28;20060;-76
2021/05/01 12:38:44;;;;;;;13.07;9.25;;;;;;;;;;5009934;28;20510;-79
2021/05/01 12:41:35;;;;;;;14.73;9.98;;;;;;;;;;5029079;28;20049;-79
2021/05/01 12:44:02;;;;;;;16.13;9.23;;;;;;;;;;5030466;28;20049;-77
2021/05/01 12:46:28;;;;;;;13.38;9.23;;;;;;;;;;5030217;28;20493;-79
2021/05/01 12:49:05;;;;;;;15.23;9.35;;;;;;;;;;5030346;28;20144;-79
2021/05/01 12:51:37;;;;;;;10.65;8.18;;;;;;;;;;5030227;28;20107;-79
2021/05/01 12:54:29;;;;;;;13.80;9.57;;;;;;;;;;5012076;28;20073;-79
2021/05/01 12:57:01;;;;;;;14.23;8.60;;;;;;;;;;5030574;28;20697;-82
2021/05/01 12:59:35;;;;;;;11.10;8.00;;;;;;;;;;5013244;28;20136;-81
2021/05/01 13:02:11;;;;;;;11.32;8.95;;;;;;;;;;5012747;28;20104;-80
2021/05/01 13:04:43;;;;;;;11.15;8.32;;;;;;;;;;5026132;28;20064;-77
2021/05/01 13:07:10;;;;;;;11.27;8.30;;;;;;;;;;5010201;28;20053;-80
2021/05/01 13:09:45;;;;;;;12.65;9.00;;;;;;;;;;5011602;28;20100;-82
2021/05/01 13:12:29;;;;;;;14.75;8.45;;;;;;;;;;4996870;28;20074;-84
2021/05/01 13:14:55;;;;;;;11.40;8.13;;;;;;;;;;4974376;28;20080;-85
2021/05/01 13:17:25;;;;;;;13.13;8.63;;;;;;;;;;4972996;28;20753;-79